Highland Falls, New York
Current Conditions -  °F | °C
As of 5:45 PM on Saturday 25 Oct 2014 (Local Time) from KSWF Reporting Station
Clear Clear  
Wind Chill: 61°   Ceiling: Unl
Heat Index: 61°   Visibility: 10mi
Dew Point: 45°   Wind: 8mph
Humidity: 55%   Direction: 270°W
Pressure: 29.63"   Gusts: NA
Location:  41.37°N, 73.97°W
Report Text: KSWF 252145Z 27007KT 10SM SKC 16/07 A2963
Loading
Personal Weather Stations






























Interactive Weather Map New forecast layout! Learn more

10-Day Weather Forecast

Advertisements
Track Severe Weather on mobile